sensor_id;sensor_type;location;lat;lon;timestamp;temperature;humidity
49253;DHT22;35103;47.952;-1.502;2022-08-11T00:02:51;26.20;40.10
49253;DHT22;35103;47.952;-1.502;2022-08-11T00:05:21;26.20;40.70
49253;DHT22;35103;47.952;-1.502;2022-08-11T00:07:51;26.10;40.20
49253;DHT22;35103;47.952;-1.502;2022-08-11T00:10:20;26.10;40.30
49253;DHT22;35103;47.952;-1.502;2022-08-11T00:13:01;26.00;40.40
49253;DHT22;35103;47.952;-1.502;2022-08-11T00:15:43;26.00;40.30
49253;DHT22;35103;47.952;-1.502;2022-08-11T00:18:10;25.90;40.90
49253;DHT22;35103;47.952;-1.502;2022-08-11T00:20:39;25.90;41.00
49253;DHT22;35103;47.952;-1.502;2022-08-11T00:23:08;25.80;41.50
49253;DHT22;35103;47.952;-1.502;2022-08-11T00:25:39;25.80;41.40
49253;DHT22;35103;47.952;-1.502;2022-08-11T00:30:48;25.70;41.60
49253;DHT22;35103;47.952;-1.502;2022-08-11T00:33:16;25.70;41.70
49253;DHT22;35103;47.952;-1.502;2022-08-11T00:35:42;25.60;41.80
49253;DHT22;35103;47.952;-1.502;2022-08-11T00:38:10;25.60;41.80
49253;DHT22;35103;47.952;-1.502;2022-08-11T00:40:43;25.60;42.00
49253;DHT22;35103;47.952;-1.502;2022-08-11T00:46:21;25.50;42.10
49253;DHT22;35103;47.952;-1.502;2022-08-11T00:57:51;25.20;42.70
49253;DHT22;35103;47.952;-1.502;2022-08-11T01:00:25;25.10;42.70
49253;DHT22;35103;47.952;-1.502;2022-08-11T01:09:37;24.90;43.20
49253;DHT22;35103;47.952;-1.502;2022-08-11T01:21:02;24.70;44.10
49253;DHT22;35103;47.952;-1.502;2022-08-11T01:43:59;24.30;45.20
49253;DHT22;35103;47.952;-1.502;2022-08-11T01:49:44;24.10;45.50
49253;DHT22;35103;47.952;-1.502;2022-08-11T01:52:20;24.10;45.60
49253;DHT22;35103;47.952;-1.502;2022-08-11T02:00:15;24.00;45.90
49253;DHT22;35103;47.952;-1.502;2022-08-11T02:03:02;23.90;46.00
49253;DHT22;35103;47.952;-1.502;2022-08-11T02:08:46;23.90;46.00
49253;DHT22;35103;47.952;-1.502;2022-08-11T02:11:26;23.80;47.20
49253;DHT22;35103;47.952;-1.502;2022-08-11T02:14:02;23.80;46.30
49253;DHT22;35103;47.952;-1.502;2022-08-11T02:16:50;23.60;46.20
49253;DHT22;35103;47.952;-1.502;2022-08-11T02:21:51;23.30;47.20
49253;DHT22;35103;47.952;-1.502;2022-08-11T02:24:34;23.30;47.60
49253;DHT22;35103;47.952;-1.502;2022-08-11T02:27:17;23.10;48.20
49253;DHT22;35103;47.952;-1.502;2022-08-11T02:29:58;23.00;48.10
49253;DHT22;35103;47.952;-1.502;2022-08-11T02:32:31;22.90;47.30
49253;DHT22;35103;47.952;-1.502;2022-08-11T02:44:03;22.60;48.50
49253;DHT22;35103;47.952;-1.502;2022-08-11T02:46:53;22.50;48.70
49253;DHT22;35103;47.952;-1.502;2022-08-11T02:49:39;22.40;48.80
49253;DHT22;35103;47.952;-1.502;2022-08-11T02:52:07;22.40;48.70
49253;DHT22;35103;47.952;-1.502;2022-08-11T02:54:41;22.30;49.10
49253;DHT22;35103;47.952;-1.502;2022-08-11T02:57:12;22.30;49.20
49253;DHT22;35103;47.952;-1.502;2022-08-11T03:00:03;22.20;49.50
49253;DHT22;35103;47.952;-1.502;2022-08-11T03:14:51;21.90;50.00
49253;DHT22;35103;47.952;-1.502;2022-08-11T03:20:02;21.80;50.50
49253;DHT22;35103;47.952;-1.502;2022-08-11T03:22:50;21.80;50.40
49253;DHT22;35103;47.952;-1.502;2022-08-11T03:25:54;21.70;50.30
49253;DHT22;35103;47.952;-1.502;2022-08-11T03:34:08;21.50;50.90
49253;DHT22;35103;47.952;-1.502;2022-08-11T03:41:54;21.30;51.80
49253;DHT22;35103;47.952;-1.502;2022-08-11T03:44:31;21.30;52.00
49253;DHT22;35103;47.952;-1.502;2022-08-11T03:57:55;20.90;52.30
49253;DHT22;35103;47.952;-1.502;2022-08-11T04:31:45;20.30;53.80
49253;DHT22;35103;47.952;-1.502;2022-08-11T04:37:14;20.20;54.30
49253;DHT22;35103;47.952;-1.502;2022-08-11T04:42:40;20.10;54.40
49253;DHT22;35103;47.952;-1.502;2022-08-11T04:45:36;20.10;54.10
49253;DHT22;35103;47.952;-1.502;2022-08-11T04:54:42;19.90;54.50
49253;DHT22;35103;47.952;-1.502;2022-08-11T04:57:40;19.90;54.90
49253;DHT22;35103;47.952;-1.502;2022-08-11T05:00:13;19.80;55.30
49253;DHT22;35103;47.952;-1.502;2022-08-11T05:08:58;19.80;55.90
49253;DHT22;35103;47.952;-1.502;2022-08-11T05:11:57;19.80;55.70
49253;DHT22;35103;47.952;-1.502;2022-08-11T05:14:35;19.80;55.60
49253;DHT22;35103;47.952;-1.502;2022-08-11T05:17:12;19.80;56.10
49253;DHT22;35103;47.952;-1.502;2022-08-11T05:19:45;19.80;55.90
49253;DHT22;35103;47.952;-1.502;2022-08-11T05:22:12;19.80;55.90
49253;DHT22;35103;47.952;-1.502;2022-08-11T05:24:50;19.80;56.30
49253;DHT22;35103;47.952;-1.502;2022-08-11T05:27:31;19.80;56.20
49253;DHT22;35103;47.952;-1.502;2022-08-11T05:30:06;19.80;56.40
49253;DHT22;35103;47.952;-1.502;2022-08-11T05:32:36;19.90;56.40
49253;DHT22;35103;47.952;-1.502;2022-08-11T05:35:04;19.90;56.70
49253;DHT22;35103;47.952;-1.502;2022-08-11T05:40:15;19.80;56.90
49253;DHT22;35103;47.952;-1.502;2022-08-11T05:42:49;19.80;56.40
49253;DHT22;35103;47.952;-1.502;2022-08-11T05:45:17;19.80;56.40
49253;DHT22;35103;47.952;-1.502;2022-08-11T05:47:48;19.80;56.50
49253;DHT22;35103;47.952;-1.502;2022-08-11T05:50:15;19.80;56.80
49253;DHT22;35103;47.952;-1.502;2022-08-11T05:52:45;19.80;56.80
49253;DHT22;35103;47.952;-1.502;2022-08-11T05:55:12;19.80;57.10
49253;DHT22;35103;47.952;-1.502;2022-08-11T05:57:38;19.80;57.30
49253;DHT22;35103;47.952;-1.502;2022-08-11T06:00:06;19.90;57.20
49253;DHT22;35103;47.952;-1.502;2022-08-11T06:02:32;20.00;57.40
49253;DHT22;35103;47.952;-1.502;2022-08-11T06:05:00;20.00;57.30
49253;DHT22;35103;47.952;-1.502;2022-08-11T06:07:29;20.20;57.30
49253;DHT22;35103;47.952;-1.502;2022-08-11T06:09:57;20.30;57.20
49253;DHT22;35103;47.952;-1.502;2022-08-11T06:12:31;20.30;57.40
49253;DHT22;35103;47.952;-1.502;2022-08-11T06:15:00;20.40;57.40
49253;DHT22;35103;47.952;-1.502;2022-08-11T06:17:28;20.60;57.60
49253;DHT22;35103;47.952;-1.502;2022-08-11T06:20:05;20.70;57.60
49253;DHT22;35103;47.952;-1.502;2022-08-11T06:22:32;20.80;57.60
49253;DHT22;35103;47.952;-1.502;2022-08-11T06:25:03;20.90;57.50
49253;DHT22;35103;47.952;-1.502;2022-08-11T06:27:32;21.10;57.50
49253;DHT22;35103;47.952;-1.502;2022-08-11T06:29:59;21.20;57.40
49253;DHT22;35103;47.952;-1.502;2022-08-11T06:32:31;21.30;57.00
49253;DHT22;35103;47.952;-1.502;2022-08-11T06:35:28;21.30;57.10
49253;DHT22;35103;47.952;-1.502;2022-08-11T06:38:09;21.40;57.00
49253;DHT22;35103;47.952;-1.502;2022-08-11T06:41:00;21.50;56.70
49253;DHT22;35103;47.952;-1.502;2022-08-11T06:43:29;21.60;57.20
49253;DHT22;35103;47.952;-1.502;2022-08-11T06:46:07;21.70;57.10
49253;DHT22;35103;47.952;-1.502;2022-08-11T06:48:34;21.90;56.90
49253;DHT22;35103;47.952;-1.502;2022-08-11T06:51:07;22.00;56.90
49253;DHT22;35103;47.952;-1.502;2022-08-11T06:53:34;22.20;56.90
49253;DHT22;35103;47.952;-1.502;2022-08-11T06:56:00;22.30;56.50
49253;DHT22;35103;47.952;-1.502;2022-08-11T06:58:35;22.40;55.60
49253;DHT22;35103;47.952;-1.502;2022-08-11T07:01:10;22.50;55.50
49253;DHT22;35103;47.952;-1.502;2022-08-11T07:03:45;22.70;55.10
49253;DHT22;35103;47.952;-1.502;2022-08-11T07:06:33;22.80;55.00
49253;DHT22;35103;47.952;-1.502;2022-08-11T07:09:18;22.90;54.80
49253;DHT22;35103;47.952;-1.502;2022-08-11T07:12:19;23.10;54.60
49253;DHT22;35103;47.952;-1.502;2022-08-11T07:14:54;23.30;54.50
49253;DHT22;35103;47.952;-1.502;2022-08-11T07:17:22;23.30;54.10
49253;DHT22;35103;47.952;-1.502;2022-08-11T07:19:58;23.50;53.70
49253;DHT22;35103;47.952;-1.502;2022-08-11T07:22:28;23.60;52.80
49253;DHT22;35103;47.952;-1.502;2022-08-11T07:25:13;23.70;52.00
49253;DHT22;35103;47.952;-1.502;2022-08-11T07:27:55;23.80;51.50
49253;DHT22;35103;47.952;-1.502;2022-08-11T07:30:23;23.80;50.40
49253;DHT22;35103;47.952;-1.502;2022-08-11T07:32:52;23.90;50.20
49253;DHT22;35103;47.952;-1.502;2022-08-11T07:35:30;23.90;50.40
49253;DHT22;35103;47.952;-1.502;2022-08-11T07:38:00;24.10;51.30
49253;DHT22;35103;47.952;-1.502;2022-08-11T07:40:26;24.30;50.10
49253;DHT22;35103;47.952;-1.502;2022-08-11T07:42:54;24.40;50.40
49253;DHT22;35103;47.952;-1.502;2022-08-11T07:45:22;24.50;50.20
49253;DHT22;35103;47.952;-1.502;2022-08-11T07:47:49;24.60;50.00
49253;DHT22;35103;47.952;-1.502;2022-08-11T07:50:15;24.80;49.00
49253;DHT22;35103;47.952;-1.502;2022-08-11T07:52:41;24.80;48.20
49253;DHT22;35103;47.952;-1.502;2022-08-11T07:55:13;25.00;47.00
49253;DHT22;35103;47.952;-1.502;2022-08-11T07:57:39;25.10;47.90
49253;DHT22;35103;47.952;-1.502;2022-08-11T08:00:06;25.20;46.80
49253;DHT22;35103;47.952;-1.502;2022-08-11T08:02:32;25.30;46.10
49253;DHT22;35103;47.952;-1.502;2022-08-11T08:04:58;25.40;45.20
49253;DHT22;35103;47.952;-1.502;2022-08-11T08:07:23;25.50;45.40
49253;DHT22;35103;47.952;-1.502;2022-08-11T08:09:50;25.70;44.10
49253;DHT22;35103;47.952;-1.502;2022-08-11T08:12:16;25.80;41.70
49253;DHT22;35103;47.952;-1.502;2022-08-11T08:14:44;25.90;41.70
49253;DHT22;35103;47.952;-1.502;2022-08-11T08:17:10;25.90;41.80
49253;DHT22;35103;47.952;-1.502;2022-08-11T08:19:36;26.00;41.80
49253;DHT22;35103;47.952;-1.502;2022-08-11T08:22:02;26.10;40.10
49253;DHT22;35103;47.952;-1.502;2022-08-11T08:24:28;26.20;40.70
49253;DHT22;35103;47.952;-1.502;2022-08-11T08:26:54;26.30;40.90
49253;DHT22;35103;47.952;-1.502;2022-08-11T08:29:21;26.40;39.30
49253;DHT22;35103;47.952;-1.502;2022-08-11T08:31:48;26.50;37.70
49253;DHT22;35103;47.952;-1.502;2022-08-11T08:34:15;26.70;39.20
49253;DHT22;35103;47.952;-1.502;2022-08-11T08:36:47;26.80;37.40
49253;DHT22;35103;47.952;-1.502;2022-08-11T08:39:13;26.90;37.90
49253;DHT22;35103;47.952;-1.502;2022-08-11T08:41:39;27.00;38.00
49253;DHT22;35103;47.952;-1.502;2022-08-11T08:44:08;27.20;37.70
49253;DHT22;35103;47.952;-1.502;2022-08-11T08:46:48;27.30;37.40
49253;DHT22;35103;47.952;-1.502;2022-08-11T08:49:17;27.50;35.60
49253;DHT22;35103;47.952;-1.502;2022-08-11T08:51:44;27.60;36.30
49253;DHT22;35103;47.952;-1.502;2022-08-11T08:54:16;27.70;33.90
49253;DHT22;35103;47.952;-1.502;2022-08-11T08:56:43;27.80;33.80
49253;DHT22;35103;47.952;-1.502;2022-08-11T08:59:12;27.80;34.90
49253;DHT22;35103;47.952;-1.502;2022-08-11T09:01:59;28.00;33.30
49253;DHT22;35103;47.952;-1.502;2022-08-11T09:04:26;28.10;32.70
49253;DHT22;35103;47.952;-1.502;2022-08-11T09:06:55;28.10;31.60
49253;DHT22;35103;47.952;-1.502;2022-08-11T09:09:23;28.20;32.00
49253;DHT22;35103;47.952;-1.502;2022-08-11T09:11:49;28.30;31.50
49253;DHT22;35103;47.952;-1.502;2022-08-11T09:14:35;28.30;31.00
49253;DHT22;35103;47.952;-1.502;2022-08-11T09:17:01;28.40;30.00
49253;DHT22;35103;47.952;-1.502;2022-08-11T09:19:27;28.50;30.60
49253;DHT22;35103;47.952;-1.502;2022-08-11T09:21:53;28.70;29.90
49253;DHT22;35103;47.952;-1.502;2022-08-11T09:24:19;28.80;30.00
49253;DHT22;35103;47.952;-1.502;2022-08-11T09:26:45;28.80;29.20
49253;DHT22;35103;47.952;-1.502;2022-08-11T09:29:11;29.00;30.10
49253;DHT22;35103;47.952;-1.502;2022-08-11T09:31:37;29.10;29.50
49253;DHT22;35103;47.952;-1.502;2022-08-11T09:34:03;29.20;29.90
49253;DHT22;35103;47.952;-1.502;2022-08-11T09:36:29;29.30;28.60
49253;DHT22;35103;47.952;-1.502;2022-08-11T09:38:56;29.40;28.60
49253;DHT22;35103;47.952;-1.502;2022-08-11T09:41:22;29.40;28.30
49253;DHT22;35103;47.952;-1.502;2022-08-11T09:43:47;29.50;28.70
49253;DHT22;35103;47.952;-1.502;2022-08-11T09:46:14;29.60;28.70
49253;DHT22;35103;47.952;-1.502;2022-08-11T09:48:44;29.70;27.90
49253;DHT22;35103;47.952;-1.502;2022-08-11T09:51:11;29.80;27.80
49253;DHT22;35103;47.952;-1.502;2022-08-11T09:53:39;29.80;27.50
49253;DHT22;35103;47.952;-1.502;2022-08-11T09:56:21;29.90;27.70
49253;DHT22;35103;47.952;-1.502;2022-08-11T09:58:47;29.90;26.90
49253;DHT22;35103;47.952;-1.502;2022-08-11T10:01:15;30.00;26.40
49253;DHT22;35103;47.952;-1.502;2022-08-11T10:03:42;30.00;26.10
49253;DHT22;35103;47.952;-1.502;2022-08-11T10:06:08;30.00;26.00
49253;DHT22;35103;47.952;-1.502;2022-08-11T10:08:37;30.00;25.70
49253;DHT22;35103;47.952;-1.502;2022-08-11T10:11:05;30.10;26.10
49253;DHT22;35103;47.952;-1.502;2022-08-11T10:13:33;30.10;26.00
49253;DHT22;35103;47.952;-1.502;2022-08-11T10:16:02;30.20;25.70
49253;DHT22;35103;47.952;-1.502;2022-08-11T10:18:38;30.30;26.00
49253;DHT22;35103;47.952;-1.502;2022-08-11T10:21:09;30.30;26.00
49253;DHT22;35103;47.952;-1.502;2022-08-11T10:23:37;30.40;25.00
49253;DHT22;35103;47.952;-1.502;2022-08-11T10:26:03;30.40;25.50
49253;DHT22;35103;47.952;-1.502;2022-08-11T10:28:31;30.50;25.50
49253;DHT22;35103;47.952;-1.502;2022-08-11T10:30:59;30.60;25.50
49253;DHT22;35103;47.952;-1.502;2022-08-11T10:33:24;30.70;25.90
49253;DHT22;35103;47.952;-1.502;2022-08-11T10:35:50;30.90;25.40
49253;DHT22;35103;47.952;-1.502;2022-08-11T10:38:17;30.90;24.90
49253;DHT22;35103;47.952;-1.502;2022-08-11T10:40:45;31.00;25.90
49253;DHT22;35103;47.952;-1.502;2022-08-11T10:43:12;31.00;24.80
49253;DHT22;35103;47.952;-1.502;2022-08-11T10:45:44;31.10;24.20
49253;DHT22;35103;47.952;-1.502;2022-08-11T10:48:10;31.00;24.20
49253;DHT22;35103;47.952;-1.502;2022-08-11T10:50:37;31.10;24.50
49253;DHT22;35103;47.952;-1.502;2022-08-11T10:53:03;31.30;24.60
49253;DHT22;35103;47.952;-1.502;2022-08-11T10:55:29;31.40;24.30
49253;DHT22;35103;47.952;-1.502;2022-08-11T10:57:55;31.50;23.20
49253;DHT22;35103;47.952;-1.502;2022-08-11T11:00:21;31.60;23.00
49253;DHT22;35103;47.952;-1.502;2022-08-11T11:02:47;31.60;23.60
49253;DHT22;35103;47.952;-1.502;2022-08-11T11:05:23;31.80;23.70
49253;DHT22;35103;47.952;-1.502;2022-08-11T11:07:59;31.80;23.60
49253;DHT22;35103;47.952;-1.502;2022-08-11T11:10:25;31.90;22.50
49253;DHT22;35103;47.952;-1.502;2022-08-11T11:12:56;31.90;22.80
49253;DHT22;35103;47.952;-1.502;2022-08-11T11:15:24;31.90;23.10
49253;DHT22;35103;47.952;-1.502;2022-08-11T11:18:01;32.10;22.50
49253;DHT22;35103;47.952;-1.502;2022-08-11T11:20:47;32.10;22.60
49253;DHT22;35103;47.952;-1.502;2022-08-11T11:26:30;32.40;23.00
49253;DHT22;35103;47.952;-1.502;2022-08-11T11:29:32;32.50;23.20
49253;DHT22;35103;47.952;-1.502;2022-08-11T11:35:16;32.80;23.80
49253;DHT22;35103;47.952;-1.502;2022-08-11T11:37:45;32.90;22.70
49253;DHT22;35103;47.952;-1.502;2022-08-11T11:40:15;33.00;22.90
49253;DHT22;35103;47.952;-1.502;2022-08-11T11:42:43;33.00;23.20
49253;DHT22;35103;47.952;-1.502;2022-08-11T11:45:10;33.10;22.70
49253;DHT22;35103;47.952;-1.502;2022-08-11T11:47:40;33.10;22.50
49253;DHT22;35103;47.952;-1.502;2022-08-11T11:50:07;33.10;22.70
49253;DHT22;35103;47.952;-1.502;2022-08-11T11:52:34;33.30;23.00
49253;DHT22;35103;47.952;-1.502;2022-08-11T11:55:00;33.40;22.80
49253;DHT22;35103;47.952;-1.502;2022-08-11T11:57:27;33.60;22.90
49253;DHT22;35103;47.952;-1.502;2022-08-11T11:59:53;33.60;22.60
49253;DHT22;35103;47.952;-1.502;2022-08-11T12:02:20;33.60;22.60
49253;DHT22;35103;47.952;-1.502;2022-08-11T12:04:46;33.70;22.60
49253;DHT22;35103;47.952;-1.502;2022-08-11T12:07:12;33.80;23.00
49253;DHT22;35103;47.952;-1.502;2022-08-11T12:09:38;33.80;23.10
49253;DHT22;35103;47.952;-1.502;2022-08-11T12:12:04;33.80;21.70
49253;DHT22;35103;47.952;-1.502;2022-08-11T12:14:30;33.70;22.20
49253;DHT22;35103;47.952;-1.502;2022-08-11T12:16:56;33.70;22.40
49253;DHT22;35103;47.952;-1.502;2022-08-11T12:19:25;33.70;22.00
49253;DHT22;35103;47.952;-1.502;2022-08-11T12:21:54;33.70;22.00
49253;DHT22;35103;47.952;-1.502;2022-08-11T12:24:20;33.70;21.90
49253;DHT22;35103;47.952;-1.502;2022-08-11T12:26:46;33.80;22.40
49253;DHT22;35103;47.952;-1.502;2022-08-11T12:29:12;33.80;21.90
49253;DHT22;35103;47.952;-1.502;2022-08-11T12:31:39;33.80;21.90
49253;DHT22;35103;47.952;-1.502;2022-08-11T12:34:10;33.80;22.10
49253;DHT22;35103;47.952;-1.502;2022-08-11T12:36:42;34.00;22.20
49253;DHT22;35103;47.952;-1.502;2022-08-11T12:39:19;34.10;21.80
49253;DHT22;35103;47.952;-1.502;2022-08-11T12:41:46;34.10;21.70
49253;DHT22;35103;47.952;-1.502;2022-08-11T12:44:12;34.10;21.70
49253;DHT22;35103;47.952;-1.502;2022-08-11T12:46:40;34.00;21.90
49253;DHT22;35103;47.952;-1.502;2022-08-11T12:49:13;34.10;21.70
49253;DHT22;35103;47.952;-1.502;2022-08-11T12:51:46;34.10;21.70
49253;DHT22;35103;47.952;-1.502;2022-08-11T12:57:05;34.30;21.80
49253;DHT22;35103;47.952;-1.502;2022-08-11T12:59:31;34.30;21.30
49253;DHT22;35103;47.952;-1.502;2022-08-11T13:01:57;34.40;21.50
49253;DHT22;35103;47.952;-1.502;2022-08-11T13:04:23;34.40;21.20
49253;DHT22;35103;47.952;-1.502;2022-08-11T13:06:50;34.30;20.90
49253;DHT22;35103;47.952;-1.502;2022-08-11T13:09:17;34.30;21.20
49253;DHT22;35103;47.952;-1.502;2022-08-11T13:11:44;34.40;21.00
49253;DHT22;35103;47.952;-1.502;2022-08-11T13:14:10;34.30;20.60
49253;DHT22;35103;47.952;-1.502;2022-08-11T13:16:36;34.30;21.70
49253;DHT22;35103;47.952;-1.502;2022-08-11T13:19:02;34.40;21.60
49253;DHT22;35103;47.952;-1.502;2022-08-11T13:21:28;34.50;21.70
49253;DHT22;35103;47.952;-1.502;2022-08-11T13:23:55;34.60;21.00
49253;DHT22;35103;47.952;-1.502;2022-08-11T13:26:22;34.70;21.60
49253;DHT22;35103;47.952;-1.502;2022-08-11T13:28:48;34.80;21.70
49253;DHT22;35103;47.952;-1.502;2022-08-11T13:31:16;34.90;21.60
49253;DHT22;35103;47.952;-1.502;2022-08-11T13:33:45;34.90;20.70
49253;DHT22;35103;47.952;-1.502;2022-08-11T13:36:12;35.00;21.30
49253;DHT22;35103;47.952;-1.502;2022-08-11T13:38:41;35.10;20.90
49253;DHT22;35103;47.952;-1.502;2022-08-11T13:41:08;35.10;20.90
49253;DHT22;35103;47.952;-1.502;2022-08-11T13:43:34;35.20;21.40
49253;DHT22;35103;47.952;-1.502;2022-08-11T13:45:59;35.20;20.80
49253;DHT22;35103;47.952;-1.502;2022-08-11T13:48:25;35.20;20.80
49253;DHT22;35103;47.952;-1.502;2022-08-11T13:50:51;35.10;20.70
49253;DHT22;35103;47.952;-1.502;2022-08-11T13:53:21;35.10;20.60
49253;DHT22;35103;47.952;-1.502;2022-08-11T13:55:48;35.10;20.60
49253;DHT22;35103;47.952;-1.502;2022-08-11T13:58:14;35.10;21.00
49253;DHT22;35103;47.952;-1.502;2022-08-11T14:00:43;35.20;21.10
49253;DHT22;35103;47.952;-1.502;2022-08-11T14:03:11;35.30;20.70
49253;DHT22;35103;47.952;-1.502;2022-08-11T14:05:41;35.30;21.10
49253;DHT22;35103;47.952;-1.502;2022-08-11T14:08:15;35.50;20.90
49253;DHT22;35103;47.952;-1.502;2022-08-11T14:10:43;35.60;20.80
49253;DHT22;35103;47.952;-1.502;2022-08-11T14:13:12;35.60;20.70
49253;DHT22;35103;47.952;-1.502;2022-08-11T14:15:42;35.70;20.90
49253;DHT22;35103;47.952;-1.502;2022-08-11T14:18:23;35.60;20.40
49253;DHT22;35103;47.952;-1.502;2022-08-11T14:20:53;35.60;20.90
49253;DHT22;35103;47.952;-1.502;2022-08-11T14:23:42;35.80;20.80
49253;DHT22;35103;47.952;-1.502;2022-08-11T14:26:09;35.90;20.70
49253;DHT22;35103;47.952;-1.502;2022-08-11T14:28:36;35.90;20.60
49253;DHT22;35103;47.952;-1.502;2022-08-11T14:31:03;35.90;20.10
49253;DHT22;35103;47.952;-1.502;2022-08-11T14:33:31;35.90;20.50
49253;DHT22;35103;47.952;-1.502;2022-08-11T14:35:57;35.80;20.50
49253;DHT22;35103;47.952;-1.502;2022-08-11T14:38:23;35.80;20.60
49253;DHT22;35103;47.952;-1.502;2022-08-11T14:40:50;35.90;21.00
49253;DHT22;35103;47.952;-1.502;2022-08-11T14:43:16;35.90;20.20
49253;DHT22;35103;47.952;-1.502;2022-08-11T14:45:44;35.80;20.10
49253;DHT22;35103;47.952;-1.502;2022-08-11T14:48:10;35.80;20.20
49253;DHT22;35103;47.952;-1.502;2022-08-11T14:50:36;35.90;20.50
49253;DHT22;35103;47.952;-1.502;2022-08-11T14:53:08;36.10;20.80
49253;DHT22;35103;47.952;-1.502;2022-08-11T14:55:38;36.30;20.50
49253;DHT22;35103;47.952;-1.502;2022-08-11T14:58:08;36.40;20.40
49253;DHT22;35103;47.952;-1.502;2022-08-11T15:00:34;36.40;19.90
49253;DHT22;35103;47.952;-1.502;2022-08-11T15:03:03;36.30;19.60
49253;DHT22;35103;47.952;-1.502;2022-08-11T15:05:28;36.20;20.00
49253;DHT22;35103;47.952;-1.502;2022-08-11T15:07:55;36.30;19.70
49253;DHT22;35103;47.952;-1.502;2022-08-11T15:10:22;36.30;20.00
49253;DHT22;35103;47.952;-1.502;2022-08-11T15:12:48;36.30;19.70
49253;DHT22;35103;47.952;-1.502;2022-08-11T15:15:15;36.30;19.70
49253;DHT22;35103;47.952;-1.502;2022-08-11T15:17:41;36.20;19.60
49253;DHT22;35103;47.952;-1.502;2022-08-11T15:20:12;36.30;20.10
49253;DHT22;35103;47.952;-1.502;2022-08-11T15:22:38;36.30;19.40
49253;DHT22;35103;47.952;-1.502;2022-08-11T15:25:04;36.30;19.60
49253;DHT22;35103;47.952;-1.502;2022-08-11T15:27:30;36.50;19.90
49253;DHT22;35103;47.952;-1.502;2022-08-11T15:29:58;36.60;19.70
49253;DHT22;35103;47.952;-1.502;2022-08-11T15:32:25;36.70;19.50
49253;DHT22;35103;47.952;-1.502;2022-08-11T15:34:56;36.70;19.50
49253;DHT22;35103;47.952;-1.502;2022-08-11T15:37:22;36.90;19.30
49253;DHT22;35103;47.952;-1.502;2022-08-11T15:39:49;37.00;19.20
49253;DHT22;35103;47.952;-1.502;2022-08-11T15:42:16;37.10;19.00
49253;DHT22;35103;47.952;-1.502;2022-08-11T15:44:42;37.30;19.80
49253;DHT22;35103;47.952;-1.502;2022-08-11T15:47:11;37.60;19.10
49253;DHT22;35103;47.952;-1.502;2022-08-11T15:49:39;37.70;18.70
49253;DHT22;35103;47.952;-1.502;2022-08-11T15:52:10;37.90;19.90
49253;DHT22;35103;47.952;-1.502;2022-08-11T15:54:41;38.30;19.60
49253;DHT22;35103;47.952;-1.502;2022-08-11T15:57:08;38.80;18.60
49253;DHT22;35103;47.952;-1.502;2022-08-11T15:59:37;39.10;18.20
49253;DHT22;35103;47.952;-1.502;2022-08-11T16:02:05;39.30;18.40
49253;DHT22;35103;47.952;-1.502;2022-08-11T16:04:34;40.00;17.40
49253;DHT22;35103;47.952;-1.502;2022-08-11T16:07:11;40.80;17.00
49253;DHT22;35103;47.952;-1.502;2022-08-11T16:10:02;41.50;16.60
49253;DHT22;35103;47.952;-1.502;2022-08-11T16:12:43;42.80;15.50
49253;DHT22;35103;47.952;-1.502;2022-08-11T16:15:10;43.50;14.10
49253;DHT22;35103;47.952;-1.502;2022-08-11T16:17:49;43.70;14.00
49253;DHT22;35103;47.952;-1.502;2022-08-11T16:20:18;43.60;14.50
49253;DHT22;35103;47.952;-1.502;2022-08-11T16:22:46;44.20;14.50
49253;DHT22;35103;47.952;-1.502;2022-08-11T16:25:21;45.00;14.10
49253;DHT22;35103;47.952;-1.502;2022-08-11T16:27:58;45.30;13.30
49253;DHT22;35103;47.952;-1.502;2022-08-11T16:30:25;45.70;13.30
49253;DHT22;35103;47.952;-1.502;2022-08-11T16:32:53;46.10;13.00
49253;DHT22;35103;47.952;-1.502;2022-08-11T16:35:22;46.30;13.00
49253;DHT22;35103;47.952;-1.502;2022-08-11T16:37:48;46.60;13.00
49253;DHT22;35103;47.952;-1.502;2022-08-11T16:40:17;46.80;12.60
49253;DHT22;35103;47.952;-1.502;2022-08-11T16:42:45;47.00;12.10
49253;DHT22;35103;47.952;-1.502;2022-08-11T16:45:12;47.10;12.20
49253;DHT22;35103;47.952;-1.502;2022-08-11T16:47:37;47.40;12.20
49253;DHT22;35103;47.952;-1.502;2022-08-11T16:50:04;47.50;12.20
49253;DHT22;35103;47.952;-1.502;2022-08-11T16:52:30;47.30;12.00
49253;DHT22;35103;47.952;-1.502;2022-08-11T16:54:55;47.10;11.90
49253;DHT22;35103;47.952;-1.502;2022-08-11T16:57:25;47.50;12.10
49253;DHT22;35103;47.952;-1.502;2022-08-11T16:59:52;47.60;11.60
49253;DHT22;35103;47.952;-1.502;2022-08-11T17:02:22;47.40;11.50
49253;DHT22;35103;47.952;-1.502;2022-08-11T17:04:53;47.40;11.90
49253;DHT22;35103;47.952;-1.502;2022-08-11T17:07:23;47.90;11.80
49253;DHT22;35103;47.952;-1.502;2022-08-11T17:09:50;48.30;11.70
49253;DHT22;35103;47.952;-1.502;2022-08-11T17:12:19;48.70;11.50
49253;DHT22;35103;47.952;-1.502;2022-08-11T17:14:53;48.80;10.90
49253;DHT22;35103;47.952;-1.502;2022-08-11T17:17:35;48.80;11.00
49253;DHT22;35103;47.952;-1.502;2022-08-11T17:20:04;48.80;11.00
49253;DHT22;35103;47.952;-1.502;2022-08-11T17:22:31;48.60;10.90
49253;DHT22;35103;47.952;-1.502;2022-08-11T17:24:59;48.70;11.20
49253;DHT22;35103;47.952;-1.502;2022-08-11T17:27:25;48.90;10.60
49253;DHT22;35103;47.952;-1.502;2022-08-11T17:29:57;48.80;11.10
49253;DHT22;35103;47.952;-1.502;2022-08-11T17:32:38;48.70;10.90
49253;DHT22;35103;47.952;-1.502;2022-08-11T17:35:11;48.40;10.50
49253;DHT22;35103;47.952;-1.502;2022-08-11T17:37:39;48.20;10.50
49253;DHT22;35103;47.952;-1.502;2022-08-11T17:40:10;47.90;10.80
49253;DHT22;35103;47.952;-1.502;2022-08-11T17:42:39;47.80;10.60
49253;DHT22;35103;47.952;-1.502;2022-08-11T17:45:06;47.60;10.80
49253;DHT22;35103;47.952;-1.502;2022-08-11T17:47:33;47.30;10.80
49253;DHT22;35103;47.952;-1.502;2022-08-11T17:49:59;47.40;11.10
49253;DHT22;35103;47.952;-1.502;2022-08-11T17:52:26;47.80;10.90
49253;DHT22;35103;47.952;-1.502;2022-08-11T17:54:52;47.90;10.80
49253;DHT22;35103;47.952;-1.502;2022-08-11T17:57:20;47.80;10.50
49253;DHT22;35103;47.952;-1.502;2022-08-11T17:59:49;47.40;10.60
49253;DHT22;35103;47.952;-1.502;2022-08-11T18:02:21;47.30;10.90
49253;DHT22;35103;47.952;-1.502;2022-08-11T18:04:49;47.10;10.80
49253;DHT22;35103;47.952;-1.502;2022-08-11T18:07:17;46.70;10.80
49253;DHT22;35103;47.952;-1.502;2022-08-11T18:09:43;46.60;11.00
49253;DHT22;35103;47.952;-1.502;2022-08-11T18:12:09;46.50;11.30
49253;DHT22;35103;47.952;-1.502;2022-08-11T18:14:36;46.50;11.30
49253;DHT22;35103;47.952;-1.502;2022-08-11T18:17:02;46.30;11.20
49253;DHT22;35103;47.952;-1.502;2022-08-11T18:19:29;46.30;11.50
49253;DHT22;35103;47.952;-1.502;2022-08-11T18:22:00;45.90;11.00
49253;DHT22;35103;47.952;-1.502;2022-08-11T18:24:30;45.30;11.20
49253;DHT22;35103;47.952;-1.502;2022-08-11T18:26:59;45.10;11.50
49253;DHT22;35103;47.952;-1.502;2022-08-11T18:29:26;44.80;11.30